sensor_id;sensor_type;location;lat;lon;timestamp;pressure;altitude;pressure_sealevel;temperature;humidity
46087;BME280;31824;49.648;8.640;2022-09-25T00:01:49;99946.66;;;13.37;100.00
46087;BME280;31824;49.648;8.640;2022-09-25T00:04:51;99947.97;;;13.42;100.00
46087;BME280;31824;49.648;8.640;2022-09-25T00:07:55;99945.09;;;13.51;100.00
46087;BME280;31824;49.648;8.640;2022-09-25T00:10:57;99952.19;;;13.40;100.00
46087;BME280;31824;49.648;8.640;2022-09-25T00:13:59;99954.75;;;13.50;100.00
46087;BME280;31824;49.648;8.640;2022-09-25T00:17:01;99956.56;;;13.51;100.00
46087;BME280;31824;49.648;8.640;2022-09-25T00:20:04;99951.75;;;13.58;100.00
46087;BME280;31824;49.648;8.640;2022-09-25T00:23:07;99944.19;;;13.50;100.00
46087;BME280;31824;49.648;8.640;2022-09-25T00:26:09;99952.06;;;13.39;100.00
46087;BME280;31824;49.648;8.640;2022-09-25T00:29:15;99947.38;;;13.24;100.00
46087;BME280;31824;49.648;8.640;2022-09-25T00:32:18;99945.09;;;13.17;100.00
46087;BME280;31824;49.648;8.640;2022-09-25T00:35:19;99941.22;;;13.24;100.00
46087;BME280;31824;49.648;8.640;2022-09-25T00:38:22;99946.38;;;13.34;100.00
46087;BME280;31824;49.648;8.640;2022-09-25T00:41:26;99952.47;;;13.33;100.00
46087;BME280;31824;49.648;8.640;2022-09-25T00:44:51;99948.91;;;13.32;100.00
46087;BME280;31824;49.648;8.640;2022-09-25T00:47:58;99946.66;;;13.15;100.00
46087;BME280;31824;49.648;8.640;2022-09-25T00:51:01;99944.25;;;13.06;100.00
46087;BME280;31824;49.648;8.640;2022-09-25T00:54:05;99937.13;;;13.05;100.00
46087;BME280;31824;49.648;8.640;2022-09-25T00:57:16;99939.03;;;13.18;100.00
46087;BME280;31824;49.648;8.640;2022-09-25T01:00:19;99928.63;;;13.31;100.00
46087;BME280;31824;49.648;8.640;2022-09-25T01:03:21;99939.41;;;13.34;100.00
46087;BME280;31824;49.648;8.640;2022-09-25T01:06:25;99931.78;;;13.15;100.00
46087;BME280;31824;49.648;8.640;2022-09-25T01:09:29;99928.94;;;13.24;100.00
46087;BME280;31824;49.648;8.640;2022-09-25T01:12:31;99927.53;;;13.17;100.00
46087;BME280;31824;49.648;8.640;2022-09-25T01:15:39;99923.75;;;13.14;100.00
46087;BME280;31824;49.648;8.640;2022-09-25T01:18:51;99928.03;;;13.24;100.00
46087;BME280;31824;49.648;8.640;2022-09-25T01:22:04;99929.19;;;13.27;100.00
46087;BME280;31824;49.648;8.640;2022-09-25T01:25:17;99920.50;;;13.40;100.00
46087;BME280;31824;49.648;8.640;2022-09-25T01:28:49;99923.91;;;13.27;100.00
46087;BME280;31824;49.648;8.640;2022-09-25T01:31:55;99919.34;;;13.37;100.00
46087;BME280;31824;49.648;8.640;2022-09-25T01:35:07;99923.75;;;13.26;100.00
46087;BME280;31824;49.648;8.640;2022-09-25T01:38:21;99916.69;;;13.25;100.00
46087;BME280;31824;49.648;8.640;2022-09-25T01:41:26;99924.44;;;13.11;100.00
46087;BME280;31824;49.648;8.640;2022-09-25T01:44:35;99916.69;;;13.03;100.00
46087;BME280;31824;49.648;8.640;2022-09-25T01:47:38;99914.34;;;13.06;100.00
46087;BME280;31824;49.648;8.640;2022-09-25T01:50:42;99913.22;;;13.14;100.00
46087;BME280;31824;49.648;8.640;2022-09-25T01:53:48;99904.91;;;13.09;100.00
46087;BME280;31824;49.648;8.640;2022-09-25T01:56:54;99914.22;;;13.16;100.00
46087;BME280;31824;49.648;8.640;2022-09-25T02:00:04;99914.41;;;12.95;100.00
46087;BME280;31824;49.648;8.640;2022-09-25T02:03:16;99913.16;;;13.02;100.00
46087;BME280;31824;49.648;8.640;2022-09-25T02:06:22;99906.97;;;13.02;100.00
46087;BME280;31824;49.648;8.640;2022-09-25T02:09:29;99911.88;;;12.97;100.00
46087;BME280;31824;49.648;8.640;2022-09-25T02:12:36;99907.41;;;12.96;100.00
46087;BME280;31824;49.648;8.640;2022-09-25T02:15:45;99907.03;;;12.91;100.00
46087;BME280;31824;49.648;8.640;2022-09-25T02:18:49;99904.53;;;12.93;100.00
46087;BME280;31824;49.648;8.640;2022-09-25T02:22:13;99903.00;;;12.84;100.00
46087;BME280;31824;49.648;8.640;2022-09-25T02:25:19;99905.53;;;12.83;100.00
46087;BME280;31824;49.648;8.640;2022-09-25T02:28:27;99912.66;;;12.96;100.00
46087;BME280;31824;49.648;8.640;2022-09-25T02:31:33;99905.97;;;13.11;100.00
46087;BME280;31824;49.648;8.640;2022-09-25T02:34:37;99911.66;;;12.94;100.00
46087;BME280;31824;49.648;8.640;2022-09-25T02:37:39;99910.75;;;12.93;100.00
46087;BME280;31824;49.648;8.640;2022-09-25T02:40:46;99907.03;;;12.91;100.00
46087;BME280;31824;49.648;8.640;2022-09-25T02:43:57;99904.47;;;13.03;100.00
46087;BME280;31824;49.648;8.640;2022-09-25T02:47:13;99909.06;;;12.83;100.00
46087;BME280;31824;49.648;8.640;2022-09-25T02:50:24;99906.69;;;12.87;100.00
46087;BME280;31824;49.648;8.640;2022-09-25T02:53:32;99907.38;;;12.84;100.00
46087;BME280;31824;49.648;8.640;2022-09-25T02:56:40;99906.44;;;12.83;100.00
46087;BME280;31824;49.648;8.640;2022-09-25T02:59:46;99908.97;;;12.82;100.00
46087;BME280;31824;49.648;8.640;2022-09-25T03:02:55;99914.56;;;12.75;100.00
46087;BME280;31824;49.648;8.640;2022-09-25T03:05:57;99912.03;;;12.76;100.00
46087;BME280;31824;49.648;8.640;2022-09-25T03:09:01;99905.97;;;12.77;100.00
46087;BME280;31824;49.648;8.640;2022-09-25T03:12:03;99902.78;;;12.81;100.00
46087;BME280;31824;49.648;8.640;2022-09-25T03:15:06;99894.50;;;12.77;100.00
46087;BME280;31824;49.648;8.640;2022-09-25T03:18:10;99901.09;;;12.94;100.00
46087;BME280;31824;49.648;8.640;2022-09-25T03:21:12;99905.03;;;12.99;100.00
46087;BME280;31824;49.648;8.640;2022-09-25T03:24:14;99905.59;;;12.95;100.00
46087;BME280;31824;49.648;8.640;2022-09-25T03:27:16;99899.19;;;12.81;100.00
46087;BME280;31824;49.648;8.640;2022-09-25T03:30:18;99907.38;;;12.84;100.00
46087;BME280;31824;49.648;8.640;2022-09-25T03:33:21;99907.84;;;12.90;100.00
46087;BME280;31824;49.648;8.640;2022-09-25T03:36:24;99905.03;;;12.77;100.00
46087;BME280;31824;49.648;8.640;2022-09-25T03:39:26;99902.91;;;12.83;100.00
46087;BME280;31824;49.648;8.640;2022-09-25T03:42:28;99905.66;;;12.84;100.00
46087;BME280;31824;49.648;8.640;2022-09-25T03:45:30;99907.97;;;12.92;100.00
46087;BME280;31824;49.648;8.640;2022-09-25T03:48:33;99903.38;;;12.89;100.00
46087;BME280;31824;49.648;8.640;2022-09-25T03:51:35;99903.19;;;12.98;100.00
46087;BME280;31824;49.648;8.640;2022-09-25T03:54:37;99903.81;;;12.83;100.00
46087;BME280;31824;49.648;8.640;2022-09-25T03:57:39;99900.31;;;12.73;100.00
46087;BME280;31824;49.648;8.640;2022-09-25T04:00:42;99897.69;;;12.73;100.00
46087;BME280;31824;49.648;8.640;2022-09-25T04:03:46;99897.00;;;12.75;100.00
46087;BME280;31824;49.648;8.640;2022-09-25T04:06:48;99903.88;;;12.73;100.00
46087;BME280;31824;49.648;8.640;2022-09-25T04:09:50;99901.16;;;12.83;100.00
46087;BME280;31824;49.648;8.640;2022-09-25T04:12:51;99898.22;;;12.91;100.00
46087;BME280;31824;49.648;8.640;2022-09-25T04:15:56;99902.00;;;12.82;100.00
46087;BME280;31824;49.648;8.640;2022-09-25T04:18:59;99901.16;;;12.83;100.00
46087;BME280;31824;49.648;8.640;2022-09-25T04:22:01;99901.09;;;12.94;100.00
46087;BME280;31824;49.648;8.640;2022-09-25T04:25:03;99901.53;;;12.88;100.00
46087;BME280;31824;49.648;8.640;2022-09-25T04:28:05;99903.19;;;12.98;100.00
46087;BME280;31824;49.648;8.640;2022-09-25T04:31:07;99901.16;;;13.06;100.00
46087;BME280;31824;49.648;8.640;2022-09-25T04:34:10;99899.63;;;12.97;100.00
46087;BME280;31824;49.648;8.640;2022-09-25T04:37:12;99903.81;;;12.83;100.00
46087;BME280;31824;49.648;8.640;2022-09-25T04:40:14;99904.69;;;12.72;100.00
46087;BME280;31824;49.648;8.640;2022-09-25T04:43:16;99910.84;;;12.73;100.00
46087;BME280;31824;49.648;8.640;2022-09-25T04:46:18;99915.47;;;12.75;100.00
46087;BME280;31824;49.648;8.640;2022-09-25T04:49:24;99913.69;;;12.64;100.00
46087;BME280;31824;49.648;8.640;2022-09-25T04:52:26;99912.16;;;12.78;100.00
46087;BME280;31824;49.648;8.640;2022-09-25T04:55:32;99908.59;;;12.77;100.00
46087;BME280;31824;49.648;8.640;2022-09-25T04:58:34;99907.63;;;12.65;100.00
46087;BME280;31824;49.648;8.640;2022-09-25T05:01:35;99910.75;;;12.71;100.00
46087;BME280;31824;49.648;8.640;2022-09-25T05:04:39;99914.72;;;12.66;100.00
46087;BME280;31824;49.648;8.640;2022-09-25T05:07:50;99911.19;;;12.65;100.00
46087;BME280;31824;49.648;8.640;2022-09-25T05:10:51;99906.03;;;12.67;100.00
46087;BME280;31824;49.648;8.640;2022-09-25T05:13:53;99907.88;;;12.68;100.00
46087;BME280;31824;49.648;8.640;2022-09-25T05:16:55;99919.53;;;12.60;100.00
46087;BME280;31824;49.648;8.640;2022-09-25T05:19:58;99914.31;;;12.49;100.00
46087;BME280;31824;49.648;8.640;2022-09-25T05:23:00;99924.56;;;12.57;100.00
46087;BME280;31824;49.648;8.640;2022-09-25T05:26:04;99901.44;;;12.64;100.00
46087;BME280;31824;49.648;8.640;2022-09-25T05:29:06;99907.81;;;12.56;100.00
46087;BME280;31824;49.648;8.640;2022-09-25T05:32:08;99913.06;;;12.56;100.00
46087;BME280;31824;49.648;8.640;2022-09-25T05:35:11;99909.78;;;12.59;100.00
46087;BME280;31824;49.648;8.640;2022-09-25T05:38:14;99911.94;;;12.53;100.00
46087;BME280;31824;49.648;8.640;2022-09-25T05:41:15;99917.56;;;12.57;100.00
46087;BME280;31824;49.648;8.640;2022-09-25T05:44:17;99907.56;;;12.53;100.00
46087;BME280;31824;49.648;8.640;2022-09-25T05:47:19;99911.38;;;12.57;100.00
46087;BME280;31824;49.648;8.640;2022-09-25T05:50:22;99909.69;;;12.47;100.00
46087;BME280;31824;49.648;8.640;2022-09-25T05:53:24;99914.94;;;12.57;100.00
46087;BME280;31824;49.648;8.640;2022-09-25T05:56:26;99912.53;;;12.38;100.00
46087;BME280;31824;49.648;8.640;2022-09-25T05:59:27;99913.44;;;12.39;100.00
46087;BME280;31824;49.648;8.640;2022-09-25T06:02:30;99920.50;;;12.50;100.00
46087;BME280;31824;49.648;8.640;2022-09-25T06:05:33;99925.28;;;12.44;100.00
46087;BME280;31824;49.648;8.640;2022-09-25T06:08:35;99914.63;;;12.42;100.00
46087;BME280;31824;49.648;8.640;2022-09-25T06:11:36;99908.91;;;12.48;100.00
46087;BME280;31824;49.648;8.640;2022-09-25T06:14:38;99915.44;;;12.63;100.00
46087;BME280;31824;49.648;8.640;2022-09-25T06:17:41;99912.41;;;12.59;100.00
46087;BME280;31824;49.648;8.640;2022-09-25T06:20:44;99914.69;;;12.54;100.00
46087;BME280;31824;49.648;8.640;2022-09-25T06:23:46;99923.38;;;12.53;100.00
46087;BME280;31824;49.648;8.640;2022-09-25T06:26:49;99920.44;;;12.60;100.00
46087;BME280;31824;49.648;8.640;2022-09-25T06:29:51;99920.31;;;12.59;100.00
46087;BME280;31824;49.648;8.640;2022-09-25T06:32:55;99925.81;;;12.62;100.00
46087;BME280;31824;49.648;8.640;2022-09-25T06:35:59;99924.56;;;12.57;100.00
46087;BME280;31824;49.648;8.640;2022-09-25T06:39:01;99925.91;;;12.52;100.00
46087;BME280;31824;49.648;8.640;2022-09-25T06:42:04;99927.50;;;12.72;100.00
46087;BME280;31824;49.648;8.640;2022-09-25T06:45:06;99920.06;;;12.56;100.00
46087;BME280;31824;49.648;8.640;2022-09-25T06:48:09;99930.19;;;12.61;100.00
46087;BME280;31824;49.648;8.640;2022-09-25T06:51:14;99929.63;;;12.65;100.00
46087;BME280;31824;49.648;8.640;2022-09-25T06:54:16;99934.78;;;12.64;100.00
46087;BME280;31824;49.648;8.640;2022-09-25T06:57:18;99930.38;;;12.75;100.00
46087;BME280;31824;49.648;8.640;2022-09-25T07:00:19;99935.75;;;12.76;100.00
46087;BME280;31824;49.648;8.640;2022-09-25T07:03:22;99935.13;;;12.69;100.00
46087;BME280;31824;49.648;8.640;2022-09-25T07:06:44;99932.00;;;12.84;100.00
46087;BME280;31824;49.648;8.640;2022-09-25T07:09:46;99931.28;;;12.75;100.00
46087;BME280;31824;49.648;8.640;2022-09-25T07:12:51;99931.47;;;12.66;100.00
46087;BME280;31824;49.648;8.640;2022-09-25T07:15:54;99934.47;;;12.71;100.00
46087;BME280;31824;49.648;8.640;2022-09-25T07:18:57;99927.19;;;12.79;100.00
46087;BME280;31824;49.648;8.640;2022-09-25T07:22:02;99926.91;;;12.98;100.00
46087;BME280;31824;49.648;8.640;2022-09-25T07:25:06;99930.28;;;13.07;100.00
46087;BME280;31824;49.648;8.640;2022-09-25T07:28:08;99935.31;;;13.16;100.00
46087;BME280;31824;49.648;8.640;2022-09-25T07:31:14;99923.94;;;13.05;100.00
46087;BME280;31824;49.648;8.640;2022-09-25T07:34:16;99925.44;;;13.13;100.00
46087;BME280;31824;49.648;8.640;2022-09-25T07:37:19;99925.38;;;13.24;100.00
46087;BME280;31824;49.648;8.640;2022-09-25T07:40:21;99927.69;;;13.19;100.00
46087;BME280;31824;49.648;8.640;2022-09-25T07:43:23;99923.66;;;13.24;100.00
46087;BME280;31824;49.648;8.640;2022-09-25T07:46:26;99929.88;;;13.25;100.00
46087;BME280;31824;49.648;8.640;2022-09-25T07:49:28;99929.81;;;13.13;100.00
46087;BME280;31824;49.648;8.640;2022-09-25T07:52:31;99934.75;;;13.20;100.00
46087;BME280;31824;49.648;8.640;2022-09-25T07:55:33;99929.16;;;13.15;100.00
46087;BME280;31824;49.648;8.640;2022-09-25T07:58:35;99939.34;;;13.23;100.00
46087;BME280;31824;49.648;8.640;2022-09-25T08:01:37;99936.00;;;13.13;100.00
46087;BME280;31824;49.648;8.640;2022-09-25T08:04:46;99931.38;;;13.33;100.00
46087;BME280;31824;49.648;8.640;2022-09-25T08:07:49;99930.38;;;13.43;100.00
46087;BME280;31824;49.648;8.640;2022-09-25T08:10:50;99937.44;;;13.32;100.00
46087;BME280;31824;49.648;8.640;2022-09-25T08:13:52;99930.16;;;13.17;100.00
46087;BME280;31824;49.648;8.640;2022-09-25T08:16:54;99928.25;;;13.27;100.00
46087;BME280;31824;49.648;8.640;2022-09-25T08:19:56;99927.91;;;13.34;100.00
46087;BME280;31824;49.648;8.640;2022-09-25T08:23:00;99933.91;;;13.31;100.00
46087;BME280;31824;49.648;8.640;2022-09-25T08:26:01;99931.00;;;13.28;100.00
46087;BME280;31824;49.648;8.640;2022-09-25T08:29:03;99928.78;;;13.45;100.00
46087;BME280;31824;49.648;8.640;2022-09-25T08:32:05;99942.19;;;13.36;100.00
46087;BME280;31824;49.648;8.640;2022-09-25T08:35:08;99936.22;;;13.39;100.00
46087;BME280;31824;49.648;8.640;2022-09-25T08:38:11;99933.75;;;13.52;100.00
46087;BME280;31824;49.648;8.640;2022-09-25T08:41:15;99932.56;;;13.48;100.00
46087;BME280;31824;49.648;8.640;2022-09-25T08:44:23;99925.78;;;13.40;100.00
46087;BME280;31824;49.648;8.640;2022-09-25T08:47:27;99932.50;;;13.59;100.00
46087;BME280;31824;49.648;8.640;2022-09-25T08:50:47;99928.78;;;13.57;100.00
46087;BME280;31824;49.648;8.640;2022-09-25T08:53:53;99926.84;;;13.42;100.00
46087;BME280;31824;49.648;8.640;2022-09-25T08:56:57;99925.56;;;13.49;100.00
46087;BME280;31824;49.648;8.640;2022-09-25T09:00:04;99928.47;;;13.52;100.00
46087;BME280;31824;49.648;8.640;2022-09-25T09:03:09;99925.81;;;13.64;100.00
46087;BME280;31824;49.648;8.640;2022-09-25T09:06:14;99926.50;;;13.49;100.00
46087;BME280;31824;49.648;8.640;2022-09-25T09:09:23;99925.28;;;13.34;100.00
46087;BME280;31824;49.648;8.640;2022-09-25T09:12:33;99937.78;;;13.25;100.00
46087;BME280;31824;49.648;8.640;2022-09-25T09:15:39;99936.75;;;13.34;100.00
46087;BME280;31824;49.648;8.640;2022-09-25T09:18:43;99937.28;;;13.18;100.00
46087;BME280;31824;49.648;8.640;2022-09-25T09:21:50;99935.69;;;13.21;100.00
46087;BME280;31824;49.648;8.640;2022-09-25T09:25:00;99944.00;;;13.03;100.00
46087;BME280;31824;49.648;8.640;2022-09-25T09:28:26;99941.41;;;13.37;100.00
46087;BME280;31824;49.648;8.640;2022-09-25T09:31:41;99945.59;;;13.35;100.00
46087;BME280;31824;49.648;8.640;2022-09-25T09:35:00;99949.31;;;13.49;100.00
46087;BME280;31824;49.648;8.640;2022-09-25T09:38:15;99946.84;;;13.74;100.00
46087;BME280;31824;49.648;8.640;2022-09-25T09:41:32;99936.03;;;13.59;100.00
46087;BME280;31824;49.648;8.640;2022-09-25T09:44:47;99939.84;;;13.63;100.00
46087;BME280;31824;49.648;8.640;2022-09-25T09:48:00;99934.06;;;13.57;100.00
46087;BME280;31824;49.648;8.640;2022-09-25T09:51:07;99929.16;;;13.61;100.00
46087;BME280;31824;49.648;8.640;2022-09-25T09:54:13;99936.63;;;13.91;100.00
46087;BME280;31824;49.648;8.640;2022-09-25T09:57:20;99922.84;;;13.71;100.00
46087;BME280;31824;49.648;8.640;2022-09-25T10:00:23;99939.72;;;13.85;100.00
46087;BME280;31824;49.648;8.640;2022-09-25T10:03:28;99929.16;;;13.73;100.00
46087;BME280;31824;49.648;8.640;2022-09-25T10:06:36;99935.69;;;13.66;100.00
46087;BME280;31824;49.648;8.640;2022-09-25T10:09:38;99930.31;;;13.89;100.00
46087;BME280;31824;49.648;8.640;2022-09-25T10:12:44;99928.44;;;14.11;100.00
46087;BME280;31824;49.648;8.640;2022-09-25T10:15:49;99931.00;;;13.86;100.00
46087;BME280;31824;49.648;8.640;2022-09-25T10:18:58;99927.34;;;13.72;100.00
46087;BME280;31824;49.648;8.640;2022-09-25T10:22:06;99920.19;;;13.83;100.00
46087;BME280;31824;49.648;8.640;2022-09-25T10:25:10;99919.63;;;13.99;100.00
46087;BME280;31824;49.648;8.640;2022-09-25T10:28:25;99916.66;;;14.06;100.00
46087;BME280;31824;49.648;8.640;2022-09-25T10:31:29;99916.19;;;14.00;100.00
46087;BME280;31824;49.648;8.640;2022-09-25T10:34:32;99919.50;;;14.09;100.00
46087;BME280;31824;49.648;8.640;2022-09-25T10:37:34;99915.66;;;14.41;100.00
46087;BME280;31824;49.648;8.640;2022-09-25T10:40:37;99919.56;;;14.46;100.00
46087;BME280;31824;49.648;8.640;2022-09-25T10:43:51;99920.72;;;14.38;100.00
46087;BME280;31824;49.648;8.640;2022-09-25T10:46:54;99923.25;;;14.48;100.00
46087;BME280;31824;49.648;8.640;2022-09-25T10:50:18;99913.88;;;14.77;100.00
46087;BME280;31824;49.648;8.640;2022-09-25T10:53:24;99921.31;;;14.83;100.00
46087;BME280;31824;49.648;8.640;2022-09-25T10:56:31;99916.91;;;14.83;100.00
46087;BME280;31824;49.648;8.640;2022-09-25T10:59:38;99925.94;;;14.62;100.00
46087;BME280;31824;49.648;8.640;2022-09-25T11:02:41;99936.63;;;14.75;100.00
46087;BME280;31824;49.648;8.640;2022-09-25T11:05:50;99939.72;;;14.58;100.00
46087;BME280;31824;49.648;8.640;2022-09-25T11:09:04;99926.84;;;14.13;100.00
46087;BME280;31824;49.648;8.640;2022-09-25T11:12:13;99937.53;;;14.15;100.00
46087;BME280;31824;49.648;8.640;2022-09-25T11:15:19;99939.16;;;14.01;100.00
46087;BME280;31824;49.648;8.640;2022-09-25T11:18:34;99930.88;;;14.08;100.00
46087;BME280;31824;49.648;8.640;2022-09-25T11:21:43;99937.28;;;14.24;100.00
46087;BME280;31824;49.648;8.640;2022-09-25T11:25:00;99935.16;;;14.06;100.00
46087;BME280;31824;49.648;8.640;2022-09-25T11:28:10;99929.72;;;14.05;100.00
46087;BME280;31824;49.648;8.640;2022-09-25T11:31:28;99928.34;;;13.98;100.00
46087;BME280;31824;49.648;8.640;2022-09-25T11:34:42;99929.72;;;14.05;100.00
46087;BME280;31824;49.648;8.640;2022-09-25T11:37:57;99925.81;;;14.23;100.00
46087;BME280;31824;49.648;8.640;2022-09-25T11:41:05;99933.91;;;14.50;100.00
46087;BME280;31824;49.648;8.640;2022-09-25T11:44:24;99921.88;;;14.30;100.00
46087;BME280;31824;49.648;8.640;2022-09-25T11:47:39;99923.16;;;14.23;100.00
46087;BME280;31824;49.648;8.640;2022-09-25T11:50:55;99920.50;;;14.35;100.00
46087;BME280;31824;49.648;8.640;2022-09-25T11:54:05;99922.97;;;14.57;100.00
46087;BME280;31824;49.648;8.640;2022-09-25T11:57:38;99916.44;;;14.64;100.00
46087;BME280;31824;49.648;8.640;2022-09-25T12:00:49;99906.53;;;14.73;100.00
46087;BME280;31824;49.648;8.640;2022-09-25T12:04:23;99916.31;;;14.88;100.00
46087;BME280;31824;49.648;8.640;2022-09-25T12:07:32;99913.78;;;14.64;100.00
46087;BME280;31824;49.648;8.640;2022-09-25T12:10:48;99911.91;;;14.75;100.00
46087;BME280;31824;49.648;8.640;2022-09-25T12:13:57;99914.44;;;14.73;100.00
46087;BME280;31824;49.648;8.640;2022-09-25T12:17:08;99901.41;;;14.88;100.00
46087;BME280;31824;49.648;8.640;2022-09-25T12:20:19;99907.31;;;14.72;100.00
46087;BME280;31824;49.648;8.640;2022-09-25T12:23:30;99904.63;;;14.84;100.00
46087;BME280;31824;49.648;8.640;2022-09-25T12:26:40;99902.47;;;14.78;100.00
46087;BME280;31824;49.648;8.640;2022-09-25T12:30:05;99903.84;;;14.85;100.00
46087;BME280;31824;49.648;8.640;2022-09-25T12:33:20;99908.69;;;14.79;100.00
46087;BME280;31824;49.648;8.640;2022-09-25T12:36:27;99907.41;;;14.74;100.00
46087;BME280;31824;49.648;8.640;2022-09-25T12:39:40;99919.34;;;14.43;100.00
46087;BME280;31824;49.648;8.640;2022-09-25T12:42:46;99911.88;;;14.38;100.00
46087;BME280;31824;49.648;8.640;2022-09-25T12:45:54;99918.28;;;14.53;100.00
46087;BME280;31824;49.648;8.640;2022-09-25T12:49:01;99926.47;;;14.32;100.00
46087;BME280;31824;49.648;8.640;2022-09-25T12:52:10;99915.50;;;14.14;100.00
46087;BME280;31824;49.648;8.640;2022-09-25T12:55:16;99914.13;;;13.84;100.00
46087;BME280;31824;49.648;8.640;2022-09-25T12:58:23;99915.97;;;13.85;100.00
46087;BME280;31824;49.648;8.640;2022-09-25T13:01:36;99921.22;;;14.21;100.00
46087;BME280;31824;49.648;8.640;2022-09-25T13:04:51;99915.34;;;14.13;100.00
46087;BME280;31824;49.648;8.640;2022-09-25T13:08:03;99918.34;;;14.06;100.00
46087;BME280;31824;49.648;8.640;2022-09-25T13:11:12;99919.16;;;14.05;100.00
46087;BME280;31824;49.648;8.640;2022-09-25T13:14:28;99916.41;;;14.03;100.00
46087;BME280;31824;49.648;8.640;2022-09-25T13:17:31;99916.06;;;14.10;100.00
46087;BME280;31824;49.648;8.640;2022-09-25T13:21:20;99912.97;;;13.92;100.00
46087;BME280;31824;49.648;8.640;2022-09-25T13:24:24;99911.00;;;13.54;100.00
46087;BME280;31824;49.648;8.640;2022-09-25T13:27:36;99916.66;;;13.59;100.00
46087;BME280;31824;49.648;8.640;2022-09-25T13:30:39;99911.81;;;13.65;100.00
46087;BME280;31824;49.648;8.640;2022-09-25T13:34:02;99919.38;;;13.48;100.00
46087;BME280;31824;49.648;8.640;2022-09-25T13:37:07;99913.94;;;13.35;100.00
46087;BME280;31824;49.648;8.640;2022-09-25T13:40:17;99912.25;;;13.36;100.00
46087;BME280;31824;49.648;8.640;2022-09-25T13:43:38;99916.41;;;13.44;100.00
46087;BME280;31824;49.648;8.640;2022-09-25T13:46:40;99926.97;;;13.44;100.00
46087;BME280;31824;49.648;8.640;2022-09-25T13:49:48;99922.06;;;13.26;100.00
46087;BME280;31824;49.648;8.640;2022-09-25T13:53:01;99925.50;;;13.25;100.00
46087;BME280;31824;49.648;8.640;2022-09-25T13:56:28;99931.94;;;13.29;100.00
46087;BME280;31824;49.648;8.640;2022-09-25T14:00:00;99930.53;;;13.34;100.00
46087;BME280;31824;49.648;8.640;2022-09-25T14:03:05;99921.84;;;13.23;100.00
46087;BME280;31824;49.648;8.640;2022-09-25T14:06:29;99914.06;;;13.37;100.00
46087;BME280;31824;49.648;8.640;2022-09-25T14:09:43;99918.69;;;13.51;100.00
46087;BME280;31824;49.648;8.640;2022-09-25T14:12:48;99920.09;;;13.24;100.00
46087;BME280;31824;49.648;8.640;2022-09-25T14:15:50;99924.22;;;13.20;100.00
46087;BME280;31824;49.648;8.640;2022-09-25T14:18:55;99914.50;;;13.31;100.00
46087;BME280;31824;49.648;8.640;2022-09-25T14:21:59;99919.66;;;13.75;100.00
46087;BME280;31824;49.648;8.640;2022-09-25T14:25:02;99912.03;;;13.44;100.00
46087;BME280;31824;49.648;8.640;2022-09-25T14:28:17;99910.56;;;13.48;100.00
46087;BME280;31824;49.648;8.640;2022-09-25T14:31:37;99914.22;;;13.50;100.00
46087;BME280;31824;49.648;8.640;2022-09-25T14:34:54;99910.22;;;13.55;100.00
46087;BME280;31824;49.648;8.640;2022-09-25T14:38:31;99913.03;;;13.34;100.00
46087;BME280;31824;49.648;8.640;2022-09-25T14:41:57;99917.78;;;13.50;100.00
46087;BME280;31824;49.648;8.640;2022-09-25T14:45:23;99916.97;;;13.51;100.00
46087;BME280;31824;49.648;8.640;2022-09-25T14:48:36;99915.00;;;13.49;100.00
46087;BME280;31824;49.648;8.640;2022-09-25T14:51:41;99912.38;;;13.49;100.00
46087;BME280;31824;49.648;8.640;2022-09-25T14:54:46;99914.09;;;13.48;100.00
46087;BME280;31824;49.648;8.640;2022-09-25T14:57:49;99919.78;;;13.31;100.00
46087;BME280;31824;49.648;8.640;2022-09-25T15:00:55;99908.38;;;13.42;100.00
46087;BME280;31824;49.648;8.640;2022-09-25T15:04:00;99907.09;;;13.37;100.00
46087;BME280;31824;49.648;8.640;2022-09-25T15:07:11;99902.72;;;13.38;100.00
46087;BME280;31824;49.648;8.640;2022-09-25T15:10:24;99901.69;;;13.47;100.00
46087;BME280;31824;49.648;8.640;2022-09-25T15:13:26;99902.03;;;13.40;100.00
46087;BME280;31824;49.648;8.640;2022-09-25T15:16:37;99899.63;;;13.43;100.00
46087;BME280;31824;49.648;8.640;2022-09-25T15:19:59;99898.63;;;13.53;100.00
46087;BME280;31824;49.648;8.640;2022-09-25T15:23:04;99909.75;;;13.61;100.00
46087;BME280;31824;49.648;8.640;2022-09-25T15:26:12;99899.31;;;13.62;100.00
46087;BME280;31824;49.648;8.640;2022-09-25T15:29:19;99914.69;;;13.68;100.00
46087;BME280;31824;49.648;8.640;2022-09-25T15:32:25;99906.53;;;13.65;100.00
46087;BME280;31824;49.648;8.640;2022-09-25T15:35:29;99909.41;;;13.56;100.00
46087;BME280;31824;49.648;8.640;2022-09-25T15:38:33;99906.41;;;13.51;100.00
46087;BME280;31824;49.648;8.640;2022-09-25T15:41:35;99906.75;;;13.44;100.00
46087;BME280;31824;49.648;8.640;2022-09-25T15:44:37;99916.41;;;13.56;100.00
46087;BME280;31824;49.648;8.640;2022-09-25T15:47:52;99900.19;;;13.39;100.00
46087;BME280;31824;49.648;8.640;2022-09-25T15:50:56;99894.84;;;13.49;100.00
46087;BME280;31824;49.648;8.640;2022-09-25T15:54:01;99904.91;;;13.43;100.00
46087;BME280;31824;49.648;8.640;2022-09-25T15:57:06;99893.78;;;13.47;100.00
46087;BME280;31824;49.648;8.640;2022-09-25T16:00:16;99895.03;;;13.41;100.00
46087;BME280;31824;49.648;8.640;2022-09-25T16:03:59;99902.84;;;13.39;100.00
46087;BME280;31824;49.648;8.640;2022-09-25T16:07:23;99900.09;;;13.38;100.00
46087;BME280;31824;49.648;8.640;2022-09-25T16:10:32;99901.81;;;13.37;100.00
46087;BME280;31824;49.648;8.640;2022-09-25T16:13:36;99911.34;;;13.47;100.00
46087;BME280;31824;49.648;8.640;2022-09-25T16:16:44;99909.75;;;13.37;100.00
46087;BME280;31824;49.648;8.640;2022-09-25T16:19:59;99906.69;;;13.32;100.00